Time;durP1;ratioP1;P1;durP2;ratioP2;P2;SDS_P1;SDS_P2;PMS_P1;PMS_P2;Temp;Humidity;BMP_temperature;BMP_pressure;BME280_temperature;BME280_humidity;BME280_pressure;Samples;Min_cycle;Max_cycle;Signal;HPM_P1;HPM_P2
2023/07/23 00:01:16;;;;;;;7.05;4.28;;;;;;;;;;5011053;28;20039;-82
2023/07/23 00:03:41;;;;;;;6.32;4.30;;;;;;;;;;5000323;28;20472;-82
2023/07/23 00:06:07;;;;;;;6.20;3.95;;;;;;;;;;5021027;28;20409;-82
2023/07/23 00:08:32;;;;;;;7.22;4.07;;;;;;;;;;5025305;28;20034;-82
2023/07/23 00:10:58;;;;;;;5.85;4.28;;;;;;;;;;5007826;28;20034;-83
2023/07/23 00:13:24;;;;;;;6.03;4.05;;;;;;;;;;5013110;28;20057;-83
2023/07/23 00:15:50;;;;;;;6.93;4.75;;;;;;;;;;5024526;28;20444;-83
2023/07/23 00:18:15;;;;;;;6.47;4.30;;;;;;;;;;5036113;28;20044;-83
2023/07/23 00:20:41;;;;;;;6.18;4.45;;;;;;;;;;4981806;28;20762;-83
2023/07/23 00:23:06;;;;;;;5.70;4.05;;;;;;;;;;5036805;28;20037;-84
2023/07/23 00:25:32;;;;;;;5.60;4.10;;;;;;;;;;5007496;28;20034;-84
2023/07/23 00:27:57;;;;;;;7.20;4.47;;;;;;;;;;5004169;28;20042;-84
2023/07/23 00:30:23;;;;;;;7.55;4.07;;;;;;;;;;5007604;28;20046;-84
2023/07/23 00:32:48;;;;;;;5.97;4.00;;;;;;;;;;5022891;28;20045;-84
2023/07/23 00:35:14;;;;;;;6.85;4.40;;;;;;;;;;5010470;28;20161;-84
2023/07/23 00:37:39;;;;;;;7.38;4.40;;;;;;;;;;5010817;28;20038;-84
2023/07/23 00:40:05;;;;;;;5.63;4.13;;;;;;;;;;5032897;28;20038;-84
2023/07/23 00:42:31;;;;;;;7.03;4.10;;;;;;;;;;5022210;28;20041;-84
2023/07/23 00:44:56;;;;;;;7.28;4.30;;;;;;;;;;5007408;28;20026;-84
2023/07/23 00:47:25;;;;;;;7.78;4.38;;;;;;;;;;5008848;28;20038;-84
2023/07/23 00:49:50;;;;;;;7.13;4.22;;;;;;;;;;5007014;28;20108;-84
2023/07/23 00:52:16;;;;;;;6.78;4.50;;;;;;;;;;4991050;28;20124;-84
2023/07/23 00:54:42;;;;;;;6.25;3.90;;;;;;;;;;4990981;28;20046;-84
2023/07/23 00:57:07;;;;;;;6.03;3.75;;;;;;;;;;5023953;28;20034;-84
2023/07/23 00:59:34;;;;;;;6.75;4.03;;;;;;;;;;5023623;28;20048;-82
2023/07/23 01:01:59;;;;;;;7.80;4.00;;;;;;;;;;5007898;28;20456;-83
2023/07/23 01:04:26;;;;;;;7.60;4.47;;;;;;;;;;5023798;28;20038;-83
2023/07/23 01:06:53;;;;;;;6.15;3.92;;;;;;;;;;4988047;28;20068;-84
2023/07/23 01:09:19;;;;;;;6.72;3.70;;;;;;;;;;5006602;28;20455;-83
2023/07/23 01:11:45;;;;;;;6.07;4.03;;;;;;;;;;5027149;28;20410;-84
2023/07/23 01:14:10;;;;;;;5.38;3.67;;;;;;;;;;5013552;28;20037;-84
2023/07/23 01:16:37;;;;;;;7.10;4.38;;;;;;;;;;5006845;28;20033;-84
2023/07/23 01:19:03;;;;;;;7.65;4.40;;;;;;;;;;5004912;28;20092;-84
2023/07/23 01:21:28;;;;;;;6.20;4.13;;;;;;;;;;5007278;28;20073;-84
2023/07/23 01:23:54;;;;;;;6.40;4.18;;;;;;;;;;5005868;28;20033;-85
2023/07/23 01:26:20;;;;;;;6.55;4.00;;;;;;;;;;5023097;28;20488;-84
2023/07/23 01:28:46;;;;;;;6.70;3.85;;;;;;;;;;5001386;28;20091;-85
2023/07/23 01:31:12;;;;;;;7.97;3.90;;;;;;;;;;5040496;28;20061;-82
2023/07/23 01:33:39;;;;;;;5.60;3.58;;;;;;;;;;5013407;28;20503;-82
2023/07/23 01:36:05;;;;;;;5.97;4.10;;;;;;;;;;5011526;28;20038;-83
2023/07/23 01:38:31;;;;;;;5.18;3.78;;;;;;;;;;5033720;28;20041;-82
2023/07/23 01:40:57;;;;;;;6.35;4.15;;;;;;;;;;5023715;28;20030;-82
2023/07/23 01:43:24;;;;;;;8.68;4.53;;;;;;;;;;5005942;28;20052;-84
2023/07/23 01:45:49;;;;;;;6.15;3.88;;;;;;;;;;5001294;28;20071;-84
2023/07/23 01:48:16;;;;;;;8.18;3.80;;;;;;;;;;4984088;28;20049;-84
2023/07/23 01:50:41;;;;;;;6.63;3.90;;;;;;;;;;5017939;28;20049;-84
2023/07/23 01:53:07;;;;;;;6.57;4.43;;;;;;;;;;5009560;28;20104;-84
2023/07/23 01:55:33;;;;;;;7.20;4.05;;;;;;;;;;5013456;28;20038;-84
2023/07/23 01:57:59;;;;;;;6.53;4.20;;;;;;;;;;5003829;28;20412;-84
2023/07/23 02:00:24;;;;;;;7.68;4.65;;;;;;;;;;5027469;28;20041;-84
2023/07/23 02:02:50;;;;;;;5.57;3.75;;;;;;;;;;5021617;28;20401;-83
2023/07/23 02:05:17;;;;;;;8.23;4.72;;;;;;;;;;5022297;28;20056;-84
2023/07/23 02:07:43;;;;;;;7.20;4.47;;;;;;;;;;5010945;28;20040;-84
2023/07/23 02:10:10;;;;;;;6.72;4.40;;;;;;;;;;4993634;28;20037;-84
2023/07/23 02:12:50;;;;;;;6.87;4.37;;;;;;;;;;5023362;28;20041;-84
2023/07/23 02:15:16;;;;;;;8.15;4.25;;;;;;;;;;5020834;28;20360;-84
2023/07/23 02:17:44;;;;;;;7.55;4.50;;;;;;;;;;5005638;28;20528;-82
2023/07/23 02:20:11;;;;;;;8.38;4.80;;;;;;;;;;4980977;28;20386;-84
2023/07/23 02:22:36;;;;;;;7.10;4.43;;;;;;;;;;5023949;28;20045;-84
2023/07/23 02:25:02;;;;;;;6.53;4.35;;;;;;;;;;5004751;28;20037;-84
2023/07/23 02:27:27;;;;;;;7.75;4.70;;;;;;;;;;5002792;28;20125;-83
2023/07/23 02:29:53;;;;;;;7.28;4.97;;;;;;;;;;5006665;28;20022;-84
2023/07/23 02:32:27;;;;;;;8.50;4.90;;;;;;;;;;5008926;28;20038;-84
2023/07/23 02:34:52;;;;;;;7.15;5.07;;;;;;;;;;5000357;28;20037;-84
2023/07/23 02:37:18;;;;;;;10.05;5.28;;;;;;;;;;5036365;28;20053;-84
2023/07/23 02:39:43;;;;;;;8.55;5.43;;;;;;;;;;5006123;28;20988;-84
2023/07/23 02:42:08;;;;;;;8.05;5.22;;;;;;;;;;5004898;28;20049;-84
2023/07/23 02:44:34;;;;;;;6.88;4.93;;;;;;;;;;4980277;28;20042;-84
2023/07/23 02:46:59;;;;;;;9.05;5.57;;;;;;;;;;5000845;28;20034;-84
2023/07/23 02:49:25;;;;;;;7.47;5.28;;;;;;;;;;4978172;28;20050;-84
2023/07/23 02:51:50;;;;;;;8.35;5.32;;;;;;;;;;5009777;28;20438;-84
2023/07/23 02:54:15;;;;;;;7.97;5.55;;;;;;;;;;5021407;28;20029;-83
2023/07/23 02:56:41;;;;;;;9.90;5.65;;;;;;;;;;5021773;28;20482;-84
2023/07/23 02:59:06;;;;;;;9.65;5.90;;;;;;;;;;5005615;28;20486;-83
2023/07/23 03:01:32;;;;;;;9.23;5.70;;;;;;;;;;5026197;28;20045;-83
2023/07/23 03:03:57;;;;;;;8.00;5.68;;;;;;;;;;5025611;28;20038;-84
2023/07/23 03:06:22;;;;;;;8.43;5.55;;;;;;;;;;5020926;28;20042;-83
2023/07/23 03:08:48;;;;;;;8.70;5.82;;;;;;;;;;5003577;28;20547;-83
2023/07/23 03:11:13;;;;;;;8.77;6.00;;;;;;;;;;5023042;28;20049;-83
2023/07/23 03:13:39;;;;;;;9.15;5.88;;;;;;;;;;4989669;28;20415;-83
2023/07/23 03:16:04;;;;;;;8.60;5.93;;;;;;;;;;4984043;28;20042;-83
2023/07/23 03:18:30;;;;;;;9.02;5.78;;;;;;;;;;5035107;28;20120;-83
2023/07/23 03:20:56;;;;;;;9.18;5.68;;;;;;;;;;5004909;28;20813;-84
2023/07/23 03:23:21;;;;;;;8.23;5.82;;;;;;;;;;5006573;28;20125;-84
2023/07/23 03:25:46;;;;;;;7.53;5.32;;;;;;;;;;4988199;28;20034;-83
2023/07/23 03:28:12;;;;;;;9.75;5.90;;;;;;;;;;5004999;28;20066;-84
2023/07/23 03:30:37;;;;;;;8.70;5.30;;;;;;;;;;5017647;28;20073;-84
2023/07/23 03:33:03;;;;;;;8.50;5.82;;;;;;;;;;5041440;28;20069;-83
2023/07/23 03:35:29;;;;;;;8.55;5.68;;;;;;;;;;5016541;28;20045;-84
2023/07/23 03:37:54;;;;;;;10.05;6.03;;;;;;;;;;5008205;28;20049;-84
2023/07/23 03:40:20;;;;;;;8.20;5.75;;;;;;;;;;5026034;28;20559;-84
2023/07/23 03:42:45;;;;;;;9.10;5.97;;;;;;;;;;5028419;28;20053;-84
2023/07/23 03:45:10;;;;;;;9.40;6.28;;;;;;;;;;5010811;28;20038;-84
2023/07/23 03:47:36;;;;;;;9.77;6.45;;;;;;;;;;5026124;28;20136;-83
2023/07/23 03:50:02;;;;;;;9.05;6.15;;;;;;;;;;5026999;28;20584;-84
2023/07/23 03:52:27;;;;;;;8.95;6.32;;;;;;;;;;5010539;28;20133;-84
2023/07/23 03:54:52;;;;;;;8.63;6.13;;;;;;;;;;5009433;28;20118;-84
2023/07/23 03:57:18;;;;;;;7.63;5.15;;;;;;;;;;5023342;28;20176;-84
2023/07/23 03:59:44;;;;;;;8.32;6.13;;;;;;;;;;5012214;28;20529;-83
2023/07/23 04:02:10;;;;;;;7.97;5.85;;;;;;;;;;5010282;28;20396;-83
2023/07/23 04:04:37;;;;;;;8.70;6.07;;;;;;;;;;5003354;28;20037;-84
2023/07/23 04:07:03;;;;;;;9.37;6.10;;;;;;;;;;5003529;28;20050;-83
2023/07/23 04:09:29;;;;;;;9.38;6.60;;;;;;;;;;5024744;28;20501;-83
2023/07/23 04:11:55;;;;;;;10.57;6.55;;;;;;;;;;5010941;28;20037;-84
2023/07/23 04:14:20;;;;;;;8.68;5.85;;;;;;;;;;5024709;28;20053;-84
2023/07/23 04:16:46;;;;;;;8.00;5.57;;;;;;;;;;5042028;28;20442;-84
2023/07/23 04:19:12;;;;;;;9.27;6.28;;;;;;;;;;5007180;28;20477;-84
2023/07/23 04:21:37;;;;;;;10.35;6.28;;;;;;;;;;4988645;28;20041;-84
2023/07/23 04:24:03;;;;;;;9.00;6.07;;;;;;;;;;5009445;28;20448;-83
2023/07/23 04:26:29;;;;;;;9.75;5.78;;;;;;;;;;5022336;28;20042;-84
2023/07/23 04:28:58;;;;;;;9.27;5.78;;;;;;;;;;5002553;28;20038;-84
2023/07/23 04:31:23;;;;;;;8.65;6.00;;;;;;;;;;5034031;28;20509;-84
2023/07/23 04:33:49;;;;;;;8.82;5.80;;;;;;;;;;5028752;28;20026;-82
2023/07/23 04:36:14;;;;;;;9.15;5.88;;;;;;;;;;5037030;28;20033;-83
2023/07/23 04:38:41;;;;;;;8.88;5.78;;;;;;;;;;5008440;28;20044;-83
2023/07/23 04:41:07;;;;;;;9.88;6.38;;;;;;;;;;5008657;28;20034;-84
2023/07/23 04:43:34;;;;;;;9.10;6.38;;;;;;;;;;5009830;28;20135;-83
2023/07/23 04:45:59;;;;;;;9.70;6.30;;;;;;;;;;5006119;28;20062;-82
2023/07/23 04:48:25;;;;;;;9.10;6.22;;;;;;;;;;4993312;28;20072;-83
2023/07/23 04:50:57;;;;;;;9.55;6.32;;;;;;;;;;5023221;28;20034;-83
2023/07/23 04:53:23;;;;;;;9.38;6.28;;;;;;;;;;5002621;28;20037;-83
2023/07/23 04:55:58;;;;;;;9.00;6.18;;;;;;;;;;5008210;28;20037;-84
2023/07/23 04:58:24;;;;;;;8.80;5.80;;;;;;;;;;5024546;28;20142;-83
2023/07/23 05:00:50;;;;;;;10.07;5.75;;;;;;;;;;5023149;28;20109;-83
2023/07/23 05:03:15;;;;;;;10.38;6.30;;;;;;;;;;5021122;28;20530;-83
2023/07/23 05:05:51;;;;;;;9.05;5.75;;;;;;;;;;5007668;28;20051;-83
2023/07/23 05:08:18;;;;;;;8.40;5.88;;;;;;;;;;4993279;28;20486;-83
2023/07/23 05:10:43;;;;;;;7.97;5.93;;;;;;;;;;5010127;28;20038;-83
2023/07/23 05:13:10;;;;;;;9.05;6.15;;;;;;;;;;4992409;28;20048;-83
2023/07/23 05:15:36;;;;;;;7.90;5.82;;;;;;;;;;5024620;28;20060;-83
2023/07/23 05:18:01;;;;;;;8.38;5.82;;;;;;;;;;5006344;28;20045;-84
2023/07/23 05:20:26;;;;;;;7.72;5.65;;;;;;;;;;5022112;28;20100;-84
2023/07/23 05:22:52;;;;;;;8.50;5.95;;;;;;;;;;5003077;28;20034;-84
2023/07/23 05:25:17;;;;;;;7.60;5.43;;;;;;;;;;5021874;28;20037;-84
2023/07/23 05:27:43;;;;;;;9.98;6.40;;;;;;;;;;4989259;28;20026;-84
2023/07/23 05:30:08;;;;;;;9.90;5.82;;;;;;;;;;5024708;28;20100;-84
2023/07/23 05:32:34;;;;;;;8.35;5.90;;;;;;;;;;4989336;28;20034;-84
2023/07/23 05:34:59;;;;;;;7.55;5.85;;;;;;;;;;4992452;28;20044;-83
2023/07/23 05:37:25;;;;;;;10.15;5.65;;;;;;;;;;5025195;28;20558;-84
2023/07/23 05:39:53;;;;;;;7.53;5.50;;;;;;;;;;5021822;28;20133;-83
2023/07/23 05:42:20;;;;;;;7.93;5.60;;;;;;;;;;5008215;28;20454;-84
2023/07/23 05:44:45;;;;;;;8.95;5.38;;;;;;;;;;5005084;28;20552;-84
2023/07/23 05:47:11;;;;;;;9.05;5.70;;;;;;;;;;5004594;28;20034;-83
2023/07/23 05:49:36;;;;;;;8.98;5.70;;;;;;;;;;5005164;28;20038;-84
2023/07/23 05:52:02;;;;;;;11.05;5.90;;;;;;;;;;5020430;28;20046;-84
2023/07/23 05:54:28;;;;;;;8.50;5.28;;;;;;;;;;5021613;28;20401;-84
2023/07/23 05:56:53;;;;;;;7.93;5.32;;;;;;;;;;5020965;28;20125;-85
2023/07/23 05:59:42;;;;;;;8.85;5.57;;;;;;;;;;5037431;28;20034;-84
2023/07/23 06:02:16;;;;;;;7.68;5.32;;;;;;;;;;5011997;28;20072;-85
2023/07/23 06:04:42;;;;;;;8.25;5.30;;;;;;;;;;5005230;28;20041;-85
2023/07/23 06:07:08;;;;;;;8.25;5.78;;;;;;;;;;5004184;28;20105;-82
2023/07/23 06:09:34;;;;;;;7.57;5.20;;;;;;;;;;4999032;28;20128;-84
2023/07/23 06:11:59;;;;;;;8.63;5.53;;;;;;;;;;5016737;28;20042;-85
2023/07/23 06:14:25;;;;;;;7.93;5.15;;;;;;;;;;5006179;28;20470;-86
2023/07/23 06:17:05;;;;;;;7.70;4.95;;;;;;;;;;4976957;28;20454;-86
2023/07/23 06:19:31;;;;;;;7.85;5.40;;;;;;;;;;5033194;28;20149;-84
2023/07/23 06:21:56;;;;;;;7.60;5.30;;;;;;;;;;5018736;28;20133;-84
2023/07/23 06:24:27;;;;;;;8.35;5.30;;;;;;;;;;5000263;28;20478;-84
2023/07/23 06:26:53;;;;;;;7.38;4.88;;;;;;;;;;5013462;28;20030;-85
2023/07/23 06:29:19;;;;;;;7.35;4.90;;;;;;;;;;4990713;28;20203;-84
2023/07/23 06:31:44;;;;;;;6.45;4.53;;;;;;;;;;5005946;28;20194;-83
2023/07/23 06:34:10;;;;;;;9.20;5.28;;;;;;;;;;5001513;28;20060;-85
2023/07/23 06:36:35;;;;;;;8.15;4.90;;;;;;;;;;5009516;28;20889;-83
2023/07/23 06:39:29;;;;;;;8.88;4.95;;;;;;;;;;4998530;28;20034;-85
2023/07/23 06:41:58;;;;;;;8.73;5.40;;;;;;;;;;4971532;28;20046;-89
2023/07/23 06:44:24;;;;;;;7.85;4.88;;;;;;;;;;5010248;28;20497;-85
2023/07/23 06:46:49;;;;;;;9.80;5.57;;;;;;;;;;5005817;28;20073;-87
2023/07/23 06:49:14;;;;;;;8.98;5.45;;;;;;;;;;4996612;28;20064;-87
2023/07/23 06:51:40;;;;;;;7.05;5.20;;;;;;;;;;5006434;28;20115;-86
2023/07/23 06:54:07;;;;;;;6.53;4.53;;;;;;;;;;5029785;28;20430;-88
2023/07/23 06:56:34;;;;;;;;;;;;;;;;;;4971830;28;20045;-87
2023/07/23 06:59:21;;;;;;;7.70;4.97;;;;;;;;;;5004557;28;19925;-87
2023/07/23 07:01:55;;;;;;;9.18;4.53;;;;;;;;;;4977973;28;20046;-82
2023/07/23 07:04:47;;;;;;;7.60;4.47;;;;;;;;;;4974545;28;20154;-89
2023/07/23 07:07:21;;;;;;;7.25;4.32;;;;;;;;;;4994108;28;20047;-90
2023/07/23 07:09:52;;;;;;;6.93;4.47;;;;;;;;;;4967356;28;20131;-89
2023/07/23 07:12:44;;;;;;;6.53;4.70;;;;;;;;;;4980245;28;20053;-90
2023/07/23 07:19:07;;;;;;;;;;;;;;;;;;4841408;29;20110;-89
2023/07/23 07:21:51;;;;;;;;;;;;;;;;;;4853352;29;19951;-88
2023/07/23 07:24:50;;;;;;;;;;;;;;;;;;;;;
2023/07/23 07:27:24;;;;;;;6.85;4.28;;;;;;;;;;4840485;29;20041;-90
2023/07/23 07:30:19;;;;;;;5.75;3.92;;;;;;;;;;4836271;29;20048;-89
2023/07/23 07:32:45;;;;;;;7.07;3.85;;;;;;;;;;4853877;29;20156;-86
2023/07/23 07:35:13;;;;;;;5.70;3.88;;;;;;;;;;4876929;29;20048;-87
2023/07/23 07:37:38;;;;;;;7.40;4.20;;;;;;;;;;4860004;29;20079;-87
2023/07/23 07:40:05;;;;;;;6.57;3.55;;;;;;;;;;4898653;28;20691;-88
2023/07/23 07:42:31;;;;;;;5.18;3.42;;;;;;;;;;4874419;29;20084;-89
2023/07/23 07:45:03;;;;;;;5.18;3.40;;;;;;;;;;4853136;29;20525;-88
2023/07/23 07:47:38;;;;;;;6.40;3.45;;;;;;;;;;4874603;29;20044;-87
2023/07/23 07:50:09;;;;;;;5.00;3.40;;;;;;;;;;4892647;28;20070;-89
2023/07/23 07:52:52;;;;;;;5.60;3.35;;;;;;;;;;4862964;29;20040;-88
2023/07/23 07:55:23;;;;;;;6.60;3.20;;;;;;;;;;4915464;28;20043;-86
2023/07/23 07:57:52;;;;;;;6.20;3.45;;;;;;;;;;4990975;28;20069;-86
2023/07/23 08:00:26;;;;;;;4.78;2.70;;;;;;;;;;5000408;28;20112;-85
2023/07/23 08:02:55;;;;;;;5.45;3.00;;;;;;;;;;5016735;28;20557;-87
2023/07/23 08:05:22;;;;;;;6.18;3.05;;;;;;;;;;5012681;28;20049;-85
2023/07/23 08:08:22;;;;;;;;;;;;;;;;;;5013303;28;20697;-88
2023/07/23 08:11:10;;;;;;;5.28;3.38;;;;;;;;;;4991135;28;19916;-85
2023/07/23 08:14:01;;;;;;;7.13;3.35;;;;;;;;;;4973864;28;20077;-88
2023/07/23 08:16:48;;;;;;;5.55;3.53;;;;;;;;;;4981433;28;20094;-88
2023/07/23 08:19:14;;;;;;;5.07;3.22;;;;;;;;;;5001057;28;20045;-89
2023/07/23 08:22:06;;;;;;;5.32;3.00;;;;;;;;;;4983012;28;20042;-89
2023/07/23 08:24:39;;;;;;;5.00;3.15;;;;;;;;;;4978104;28;20056;-91
2023/07/23 08:30:39;;;;;;;5.65;3.15;;;;;;;;;;4879652;29;20048;-92
2023/07/23 08:33:35;;;;;;;5.35;3.28;;;;;;;;;;4843978;29;20167;-90
2023/07/23 08:36:26;;;;;;;5.47;3.28;;;;;;;;;;4852646;28;20493;-91
2023/07/23 08:39:30;;;;;;;5.03;2.90;;;;;;;;;;4916915;28;20202;-89
2023/07/23 08:42:40;;;;;;;6.70;3.15;;;;;;;;;;4920238;28;20465;-89
2023/07/23 08:45:47;;;;;;;5.35;3.00;;;;;;;;;;4908716;28;20119;-89
2023/07/23 08:54:43;;;;;;;5.45;3.05;;;;;;;;;;4897664;28;20071;-92
2023/07/23 08:57:18;;;;;;;5.30;3.20;;;;;;;;;;4847928;29;20591;-90
2023/07/23 08:59:53;;;;;;;6.50;3.05;;;;;;;;;;4873118;29;20037;-90
2023/07/23 09:06:19;;;;;;;5.35;3.10;;;;;;;;;;4859220;28;20045;-88
2023/07/23 09:08:47;;;;;;;5.32;2.72;;;;;;;;;;4917105;28;20047;-88
2023/07/23 09:15:13;;;;;;;5.13;2.88;;;;;;;;;;4998813;28;20119;-91
2023/07/23 09:18:14;;;;;;;5.25;3.17;;;;;;;;;;4976363;28;20028;-89
2023/07/23 09:31:49;;;;;;;;;;;;;;;;;;;;;
2023/07/23 09:34:42;;;;;;;6.07;2.72;;;;;;;;;;4741847;29;21021;-90
2023/07/23 09:47:40;;;;;;;6.45;2.47;;;;;;;;;;4256561;30;5669951;-89
2023/07/23 09:50:10;;;;;;;5.30;2.60;;;;;;;;;;4647178;30;20288;-87
2023/07/23 09:52:42;;;;;;;5.38;2.70;;;;;;;;;;4660538;30;20542;-89
2023/07/23 09:55:12;;;;;;;4.70;2.70;;;;;;;;;;4674973;30;20617;-89
2023/07/23 09:57:40;;;;;;;4.68;2.50;;;;;;;;;;4682070;30;20049;-89
2023/07/23 10:00:09;;;;;;;5.78;2.83;;;;;;;;;;4681293;30;20414;-88
2023/07/23 10:02:41;;;;;;;5.75;2.70;;;;;;;;;;4645441;30;20050;-84
2023/07/23 10:05:07;;;;;;;4.30;2.75;;;;;;;;;;4683221;30;20862;-84
2023/07/23 10:07:33;;;;;;;6.67;2.57;;;;;;;;;;4748545;29;20053;-84
2023/07/23 10:09:59;;;;;;;5.63;2.78;;;;;;;;;;4820061;29;20072;-84
2023/07/23 10:12:25;;;;;;;5.95;2.70;;;;;;;;;;4829438;29;20049;-86
2023/07/23 10:14:51;;;;;;;6.15;2.50;;;;;;;;;;4833221;29;20053;-84
2023/07/23 10:17:17;;;;;;;5.20;2.85;;;;;;;;;;4867486;28;20056;-85
2023/07/23 10:19:43;;;;;;;4.78;2.53;;;;;;;;;;4893954;29;20043;-83
2023/07/23 10:22:09;;;;;;;8.20;2.80;;;;;;;;;;4895775;29;20622;-88
2023/07/23 10:24:49;;;;;;;4.68;2.63;;;;;;;;;;4950061;28;20038;-83
2023/07/23 10:27:16;;;;;;;4.72;2.40;;;;;;;;;;5032895;28;20125;-85
2023/07/23 10:30:20;;;;;;;4.63;2.40;;;;;;;;;;5007773;28;20857;-84
2023/07/23 10:33:08;;;;;;;6.40;2.70;;;;;;;;;;5005181;28;20050;-87
2023/07/23 10:35:51;;;;;;;4.70;2.75;;;;;;;;;;5002574;28;20040;-86
2023/07/23 10:38:19;;;;;;;9.63;2.83;;;;;;;;;;5032298;28;20464;-87
2023/07/23 10:40:46;;;;;;;5.22;2.95;;;;;;;;;;5005360;28;20037;-86
2023/07/23 10:43:12;;;;;;;6.40;2.80;;;;;;;;;;5026606;28;20046;-87
2023/07/23 10:45:38;;;;;;;4.70;2.88;;;;;;;;;;5004575;28;20523;-80
2023/07/23 10:48:04;;;;;;;5.40;2.85;;;;;;;;;;5008850;28;20464;-79
2023/07/23 10:50:33;;;;;;;5.30;2.50;;;;;;;;;;4999331;28;20045;-86
2023/07/23 10:53:03;;;;;;;5.63;2.75;;;;;;;;;;5024603;28;20450;-87
2023/07/23 10:55:35;;;;;;;4.93;3.25;;;;;;;;;;5005581;28;20046;-86
2023/07/23 10:58:03;;;;;;;5.20;3.08;;;;;;;;;;5005996;28;20045;-86
2023/07/23 11:00:55;;;;;;;5.00;3.10;;;;;;;;;;5026025;28;20662;-86
2023/07/23 11:03:25;;;;;;;6.72;3.30;;;;;;;;;;5003476;28;20041;-85
2023/07/23 11:06:06;;;;;;;5.57;2.97;;;;;;;;;;5002796;28;20690;-86
2023/07/23 11:08:40;;;;;;;4.93;2.60;;;;;;;;;;4988088;28;20237;-85
2023/07/23 11:11:09;;;;;;;8.40;3.08;;;;;;;;;;4987265;28;20044;-88
2023/07/23 11:13:35;;;;;;;5.07;3.20;;;;;;;;;;4981526;28;20057;-88
2023/07/23 11:16:02;;;;;;;4.05;2.50;;;;;;;;;;5001331;28;20574;-82
2023/07/23 11:18:36;;;;;;;6.10;2.80;;;;;;;;;;4988853;28;20045;-82
2023/07/23 11:21:05;;;;;;;5.30;2.50;;;;;;;;;;4986348;28;20108;-83
2023/07/23 11:23:31;;;;;;;5.60;2.78;;;;;;;;;;5035766;28;20046;-82
2023/07/23 11:26:18;;;;;;;5.80;2.33;;;;;;;;;;5010057;28;20041;-79
2023/07/23 11:28:44;;;;;;;5.32;2.67;;;;;;;;;;4991719;28;20054;-79
2023/07/23 11:31:16;;;;;;;7.07;2.75;;;;;;;;;;4972462;28;20485;-86
2023/07/23 11:33:41;;;;;;;4.03;2.33;;;;;;;;;;4966999;28;20040;-90
2023/07/23 11:36:12;;;;;;;4.65;2.50;;;;;;;;;;4957607;28;20038;-85
2023/07/23 11:38:43;;;;;;;4.75;2.70;;;;;;;;;;4986393;28;20531;-87
2023/07/23 11:41:10;;;;;;;6.57;2.40;;;;;;;;;;4968230;28;20061;-87
2023/07/23 11:43:37;;;;;;;3.65;2.10;;;;;;;;;;4955960;28;20043;-83
2023/07/23 11:46:03;;;;;;;;;;;;;;;;;;4991433;28;20038;-84
2023/07/23 11:48:29;;;;;;;7.53;2.42;;;;;;;;;;5002862;28;19917;-84
2023/07/23 11:50:55;;;;;;;4.80;2.25;;;;;;;;;;4957394;28;20039;-84
2023/07/23 11:53:35;;;;;;;4.25;2.10;;;;;;;;;;4956163;28;20038;-84
2023/07/23 11:56:13;;;;;;;4.65;2.10;;;;;;;;;;4999831;28;20034;-83
2023/07/23 11:58:54;;;;;;;4.65;2.10;;;;;;;;;;4968048;28;20126;-81
2023/07/23 12:01:20;;;;;;;4.25;2.08;;;;;;;;;;5003066;28;20050;-85
2023/07/23 12:04:03;;;;;;;5.22;2.20;;;;;;;;;;4967589;28;20034;-85
2023/07/23 12:16:05;;;;;;;3.70;1.92;;;;;;;;;;4956442;28;20058;-88
2023/07/23 12:19:05;;;;;;;4.65;2.40;;;;;;;;;;4937280;28;20050;-84
2023/07/23 12:21:34;;;;;;;9.20;2.13;;;;;;;;;;4936664;28;20055;-84
2023/07/23 12:24:51;;;;;;;3.80;1.75;;;;;;;;;;4899483;28;20479;-84
2023/07/23 12:37:25;;;;;;;3.88;2.08;;;;;;;;;;4837346;29;20097;-84
2023/07/23 12:40:27;;;;;;;4.97;2.10;;;;;;;;;;4828351;29;20438;-89
2023/07/23 12:49:41;;;;;;;4.03;1.67;;;;;;;;;;4826299;29;20061;-82
2023/07/23 12:52:35;;;;;;;4.00;2.10;;;;;;;;;;4828390;29;20449;-83
2023/07/23 12:55:45;;;;;;;;;;;;;;;;;;;;;
2023/07/23 12:58:23;;;;;;;3.10;1.48;;;;;;;;;;4772678;29;20377;-82
2023/07/23 13:01:15;;;;;;;4.05;1.60;;;;;;;;;;4796040;29;20137;-81
2023/07/23 13:03:55;;;;;;;4.18;1.70;;;;;;;;;;4822939;29;20591;-85
2023/07/23 13:06:35;;;;;;;4.57;1.90;;;;;;;;;;4814911;29;20048;-80
2023/07/23 13:09:00;;;;;;;4.60;1.83;;;;;;;;;;4857765;29;20037;-82
2023/07/23 13:11:26;;;;;;;3.85;1.70;;;;;;;;;;4900530;29;20037;-82
2023/07/23 13:13:54;;;;;;;4.57;2.25;;;;;;;;;;4906208;29;20048;-83
2023/07/23 13:16:22;;;;;;;3.85;2.22;;;;;;;;;;4854478;29;20390;-82
2023/07/23 13:18:48;;;;;;;3.97;2.13;;;;;;;;;;4888147;29;20456;-82
2023/07/23 13:21:13;;;;;;;3.50;1.75;;;;;;;;;;4889713;29;20108;-83
2023/07/23 13:23:41;;;;;;;3.28;1.80;;;;;;;;;;4924435;29;20046;-85
2023/07/23 13:26:08;;;;;;;13.13;2.92;;;;;;;;;;4931771;28;20030;-83
2023/07/23 13:28:33;;;;;;;4.83;2.20;;;;;;;;;;4980878;28;20046;-81
2023/07/23 13:30:59;;;;;;;5.32;2.03;;;;;;;;;;4988704;28;20556;-84
2023/07/23 13:33:25;;;;;;;5.65;2.40;;;;;;;;;;4964890;28;20035;-82
2023/07/23 13:35:54;;;;;;;5.25;1.98;;;;;;;;;;4969748;28;20133;-84
2023/07/23 13:38:25;;;;;;;3.67;2.20;;;;;;;;;;4975247;28;20046;-84
2023/07/23 13:40:51;;;;;;;4.57;2.00;;;;;;;;;;4982894;28;20054;-83
2023/07/23 13:43:17;;;;;;;3.30;1.75;;;;;;;;;;4978240;28;20074;-84
2023/07/23 13:45:43;;;;;;;3.90;1.80;;;;;;;;;;4967815;28;20061;-81
2023/07/23 13:48:08;;;;;;;4.50;1.80;;;;;;;;;;4956607;28;20050;-82
2023/07/23 13:50:49;;;;;;;4.45;2.42;;;;;;;;;;4973683;28;20415;-82
2023/07/23 13:53:15;;;;;;;5.80;2.20;;;;;;;;;;4974089;28;20045;-86
2023/07/23 13:55:40;;;;;;;4.55;2.20;;;;;;;;;;4973606;28;20378;-81
2023/07/23 13:58:06;;;;;;;3.85;2.03;;;;;;;;;;4974029;28;20030;-83
2023/07/23 14:00:33;;;;;;;3.67;1.83;;;;;;;;;;4981084;28;20049;-87
2023/07/23 14:03:01;;;;;;;6.15;2.20;;;;;;;;;;4964686;28;20562;-83
2023/07/23 14:05:29;;;;;;;4.82;1.70;;;;;;;;;;4948483;28;20887;-83
2023/07/23 14:07:57;;;;;;;6.70;2.40;;;;;;;;;;4923816;28;20046;-82
2023/07/23 14:10:23;;;;;;;5.93;2.15;;;;;;;;;;4962209;28;20105;-83
2023/07/23 14:12:49;;;;;;;6.03;2.60;;;;;;;;;;4962597;28;20498;-81
2023/07/23 14:15:14;;;;;;;4.60;2.60;;;;;;;;;;4965571;28;20491;-82
2023/07/23 14:17:43;;;;;;;5.90;2.47;;;;;;;;;;4958582;28;20042;-84
2023/07/23 14:20:12;;;;;;;5.40;2.85;;;;;;;;;;4947963;28;20128;-86
2023/07/23 14:23:04;;;;;;;6.53;2.80;;;;;;;;;;4923742;28;20877;-85
2023/07/23 14:25:29;;;;;;;5.78;2.67;;;;;;;;;;4963234;28;20145;-84
2023/07/23 14:27:54;;;;;;;5.80;2.70;;;;;;;;;;4964814;28;20125;-83
2023/07/23 14:30:32;;;;;;;5.50;2.58;;;;;;;;;;4957803;28;20540;-86
2023/07/23 14:32:57;;;;;;;4.88;2.70;;;;;;;;;;4946708;28;20043;-82
2023/07/23 14:35:30;;;;;;;6.60;2.42;;;;;;;;;;4979561;28;20047;-83
2023/07/23 14:37:59;;;;;;;5.53;2.53;;;;;;;;;;4947851;28;20186;-85
2023/07/23 14:40:24;;;;;;;5.35;2.70;;;;;;;;;;4960738;28;20050;-86
2023/07/23 14:42:50;;;;;;;4.55;2.72;;;;;;;;;;4957556;28;20046;-83
2023/07/23 14:45:16;;;;;;;6.95;3.10;;;;;;;;;;4980953;28;20066;-81
2023/07/23 14:47:41;;;;;;;5.72;2.67;;;;;;;;;;4975289;28;20030;-84
2023/07/23 14:50:08;;;;;;;4.80;2.60;;;;;;;;;;4958249;28;20822;-81
2023/07/23 14:52:34;;;;;;;7.45;2.90;;;;;;;;;;4962648;28;20038;-82
2023/07/23 14:55:00;;;;;;;7.00;2.40;;;;;;;;;;4959175;28;20402;-82
2023/07/23 14:57:28;;;;;;;4.60;2.47;;;;;;;;;;4962313;28;20101;-83
2023/07/23 14:59:55;;;;;;;4.78;2.70;;;;;;;;;;4956657;28;20574;-83
2023/07/23 15:02:20;;;;;;;5.35;2.63;;;;;;;;;;4946758;28;20047;-86
2023/07/23 15:04:46;;;;;;;4.65;2.60;;;;;;;;;;4969310;28;20039;-87
2023/07/23 15:07:11;;;;;;;4.70;2.80;;;;;;;;;;4947386;28;20039;-81
2023/07/23 15:09:37;;;;;;;6.32;2.80;;;;;;;;;;4938494;28;20042;-83
2023/07/23 15:12:03;;;;;;;4.95;2.40;;;;;;;;;;4974409;28;20037;-82
2023/07/23 15:15:12;;;;;;;6.38;3.00;;;;;;;;;;4974522;28;20041;-91
2023/07/23 15:17:39;;;;;;;6.43;2.88;;;;;;;;;;4973813;28;20054;-84
2023/07/23 15:20:05;;;;;;;4.50;2.17;;;;;;;;;;4961074;28;20050;-84
2023/07/23 15:22:36;;;;;;;4.82;2.30;;;;;;;;;;4951109;28;20490;-83
2023/07/23 15:25:11;;;;;;;8.27;2.40;;;;;;;;;;4978787;28;20117;-81
2023/07/23 15:27:38;;;;;;;4.97;2.67;;;;;;;;;;4968745;28;20053;-82
2023/07/23 15:30:05;;;;;;;4.60;2.20;;;;;;;;;;4996922;28;20125;-82
2023/07/23 15:32:33;;;;;;;5.57;2.15;;;;;;;;;;4993778;28;20046;-82
2023/07/23 15:34:59;;;;;;;6.20;2.15;;;;;;;;;;4984515;28;20049;-79
2023/07/23 15:37:24;;;;;;;4.45;2.00;;;;;;;;;;4993589;28;20465;-79
2023/07/23 15:39:50;;;;;;;4.68;2.25;;;;;;;;;;4979240;28;20117;-80
2023/07/23 15:42:18;;;;;;;3.70;2.00;;;;;;;;;;4980625;28;20038;-81
2023/07/23 15:44:44;;;;;;;5.55;2.15;;;;;;;;;;4977592;28;20038;-78
2023/07/23 15:47:09;;;;;;;3.70;2.00;;;;;;;;;;4994948;28;20045;-78
2023/07/23 15:49:34;;;;;;;5.63;2.42;;;;;;;;;;4997778;28;20033;-80
2023/07/23 15:52:26;;;;;;;5.07;2.05;;;;;;;;;;4975152;28;20458;-85
2023/07/23 15:54:52;;;;;;;4.30;2.15;;;;;;;;;;4978918;28;20042;-79
2023/07/23 15:57:18;;;;;;;4.65;2.28;;;;;;;;;;4994172;28;20383;-78
2023/07/23 15:59:43;;;;;;;4.93;2.20;;;;;;;;;;4996175;28;20038;-79
2023/07/23 16:02:10;;;;;;;4.65;1.98;;;;;;;;;;4964979;28;20034;-79
2023/07/23 16:04:37;;;;;;;5.60;2.17;;;;;;;;;;4966377;28;21186;-80
2023/07/23 16:07:02;;;;;;;4.90;2.00;;;;;;;;;;4993400;28;20069;-80
2023/07/23 16:09:28;;;;;;;4.05;2.08;;;;;;;;;;4995070;28;20452;-80
2023/07/23 16:11:53;;;;;;;3.88;2.22;;;;;;;;;;4962887;28;20176;-79
2023/07/23 16:14:19;;;;;;;3.40;2.00;;;;;;;;;;4983261;28;20493;-79